createdAt,value
2022-09-15T00:01:18.739Z,98777.88
2022-09-15T00:06:41.139Z,98775.69
2022-09-15T00:12:03.757Z,98758.84
2022-09-15T00:17:27.008Z,98749.81
2022-09-15T00:22:49.946Z,98714.31
2022-09-15T00:28:12.038Z,98735.66
2022-09-15T00:33:33.829Z,98723.03
2022-09-15T00:38:56.450Z,98698.81
2022-09-15T00:44:36.811Z,98738.94
2022-09-15T00:50:06.018Z,98724.63
2022-09-15T00:55:31.039Z,98723.50
2022-09-15T01:00:57.698Z,98726.88
2022-09-15T01:06:29.843Z,98723.84
2022-09-15T01:11:52.370Z,98724.19
2022-09-15T01:17:49.347Z,98721.94
2022-09-15T01:23:50.821Z,98724.19
2022-09-15T01:29:46.082Z,98714.81
2022-09-15T01:35:22.838Z,98722.59
2022-09-15T01:41:07.600Z,98696.13
2022-09-15T01:46:33.852Z,98699.28
2022-09-15T01:51:56.170Z,98703.22
2022-09-15T01:57:22.634Z,98696.25
2022-09-15T02:02:51.372Z,98703.22
2022-09-15T02:08:25.620Z,98699.16
2022-09-15T02:14:06.799Z,98653.75
2022-09-15T02:19:37.300Z,98691.28
2022-09-15T02:25:08.596Z,98692.84
2022-09-15T02:30:33.051Z,98688.13
2022-09-15T02:35:55.641Z,98690.16
2022-09-15T02:41:17.799Z,98674.28
2022-09-15T02:46:40.770Z,98671.69
2022-09-15T02:52:03.271Z,98655.00
2022-09-15T02:57:25.387Z,98635.16
2022-09-15T03:02:52.850Z,98670.34
2022-09-15T03:08:14.931Z,98648.50
2022-09-15T03:13:43.261Z,98666.19
2022-09-15T03:19:05.321Z,98656.16
2022-09-15T03:24:27.780Z,98655.38
2022-09-15T03:29:49.816Z,98653.09
2022-09-15T03:35:11.672Z,98652.78
2022-09-15T03:40:34.448Z,98641.97
2022-09-15T03:45:57.205Z,98641.31
2022-09-15T03:51:19.287Z,98639.38
2022-09-15T03:56:41.430Z,98637.94
2022-09-15T04:02:03.298Z,98633.63
2022-09-15T04:07:25.601Z,98630.50
2022-09-15T04:13:14.381Z,98625.88
2022-09-15T04:18:37.018Z,98602.44
2022-09-15T04:23:59.020Z,98581.50
2022-09-15T04:29:23.643Z,98592.97
2022-09-15T04:34:45.831Z,98557.06
2022-09-15T04:40:10.853Z,98588.38
2022-09-15T04:45:39.280Z,98563.59
2022-09-15T04:51:06.754Z,98540.50
2022-09-15T04:56:28.830Z,98559.31
2022-09-15T05:01:58.417Z,98609.31
2022-09-15T05:07:21.105Z,98560.78
2022-09-15T05:12:43.261Z,98554.34
2022-09-15T05:18:09.991Z,98614.72
2022-09-15T05:23:32.690Z,98576.19
2022-09-15T05:28:55.821Z,98530.75
2022-09-15T05:34:18.399Z,98572.94
2022-09-15T05:39:43.101Z,98534.78
2022-09-15T05:45:08.628Z,98548.41
2022-09-15T05:50:33.901Z,98532.44
2022-09-15T05:56:01.081Z,98542.66
2022-09-15T06:01:26.228Z,98563.59
2022-09-15T06:06:51.800Z,98554.47
2022-09-15T06:12:14.021Z,98535.69
2022-09-15T06:17:38.378Z,98563.16
2022-09-15T06:23:00.839Z,98559.78
2022-09-15T06:28:24.400Z,98541.06
2022-09-15T06:33:56.999Z,98568.78
2022-09-15T06:39:20.421Z,98515.75
2022-09-15T06:44:44.858Z,98523.50
2022-09-15T06:50:07.401Z,98507.97
2022-09-15T06:55:33.172Z,98529.66
2022-09-15T07:01:06.541Z,98530.44
2022-09-15T07:06:30.207Z,98487.91
2022-09-15T07:11:54.975Z,98497.88
2022-09-15T07:17:22.460Z,98504.00
2022-09-15T07:22:44.871Z,98496.13
2022-09-15T07:28:09.831Z,98489.16
2022-09-15T07:33:37.702Z,98486.91
2022-09-15T07:39:00.221Z,98535.09
2022-09-15T07:44:27.272Z,98488.31
2022-09-15T07:49:50.980Z,98488.53
2022-09-15T07:55:13.876Z,98528.41
2022-09-15T08:00:39.283Z,98510.75
2022-09-15T08:06:03.473Z,98483.94
2022-09-15T08:11:31.665Z,98501.41
2022-09-15T08:17:05.212Z,98504.72
2022-09-15T08:22:30.623Z,98520.63
2022-09-15T08:27:54.741Z,98548.06
2022-09-15T08:33:19.613Z,98522.00
2022-09-15T08:38:47.100Z,98533.00
2022-09-15T08:44:36.902Z,98577.59
2022-09-15T08:50:24.251Z,98579.84
2022-09-15T08:55:55.332Z,98559.16
2022-09-15T09:02:00.210Z,98545.09
2022-09-15T09:07:58.471Z,98560.47
2022-09-15T09:13:52.758Z,98573.66
2022-09-15T09:19:23.790Z,98581.38
2022-09-15T09:24:49.219Z,98553.81
2022-09-15T09:30:16.189Z,98575.94
2022-09-15T09:35:46.973Z,98515.44
2022-09-15T09:41:28.737Z,98531.28
2022-09-15T09:46:56.965Z,98518.59
2022-09-15T09:52:35.719Z,98545.09
2022-09-15T09:58:15.026Z,98562.59
2022-09-15T10:03:39.111Z,98541.25
2022-09-15T10:09:19.220Z,98554.03
2022-09-15T10:14:42.789Z,98563.38
2022-09-15T10:20:20.006Z,98581.72
2022-09-15T10:25:58.638Z,98582.97
2022-09-15T10:31:32.164Z,98583.28
2022-09-15T10:37:00.099Z,98582.06
2022-09-15T10:42:41.599Z,98590.47
2022-09-15T10:48:29.460Z,98591.94
2022-09-15T10:54:00.328Z,98600.06
2022-09-15T10:59:35.201Z,98588.78
2022-09-15T11:05:29.030Z,98596.41
2022-09-15T11:11:29.681Z,98596.03
2022-09-15T11:17:09.100Z,98550.22
2022-09-15T11:22:38.771Z,98601.00
2022-09-15T11:28:20.995Z,98569.63
2022-09-15T11:33:58.773Z,98568.06
2022-09-15T11:39:25.027Z,98564.22
2022-09-15T11:44:48.526Z,98599.28
2022-09-15T11:50:20.093Z,98604.44
2022-09-15T11:55:53.991Z,98606.03
2022-09-15T12:01:21.299Z,98579.25
2022-09-15T12:06:45.777Z,98604.97
2022-09-15T12:12:21.510Z,98606.13
2022-09-15T12:18:27.668Z,98564.38
2022-09-15T12:24:08.589Z,98604.91
2022-09-15T12:29:48.380Z,98604.97
2022-09-15T12:35:18.859Z,98619.06
2022-09-15T12:40:42.197Z,98610.22
2022-09-15T12:46:05.111Z,98618.19
2022-09-15T12:51:28.751Z,98609.41
2022-09-15T12:56:55.488Z,98603.13
2022-09-15T13:02:46.828Z,98614.06
2022-09-15T13:08:38.470Z,98609.34
2022-09-15T13:14:28.750Z,98592.22
2022-09-15T13:20:08.912Z,98568.88
2022-09-15T13:25:33.651Z,98586.88
2022-09-15T13:31:24.800Z,98619.56
2022-09-15T13:43:38.682Z,98629.09
2022-09-15T13:49:43.931Z,98640.66
2022-09-15T13:55:23.155Z,98643.53
2022-09-15T14:00:59.820Z,98639.50
2022-09-15T14:06:25.955Z,98644.06
2022-09-15T14:11:54.713Z,98643.41
2022-09-15T14:17:32.043Z,98639.56
2022-09-15T14:22:54.366Z,98606.75
2022-09-15T14:28:22.588Z,98653.81
2022-09-15T14:33:52.178Z,98653.38
2022-09-15T14:39:20.021Z,98630.22
2022-09-15T14:50:31.850Z,98633.84
2022-09-15T14:56:08.645Z,98653.25
2022-09-15T15:01:41.078Z,98634.44
2022-09-15T15:07:26.229Z,98664.28
2022-09-15T15:13:05.962Z,98568.16
2022-09-15T15:18:40.787Z,98656.47
2022-09-15T15:24:19.203Z,98654.19
2022-09-15T15:29:44.999Z,98660.38
2022-09-15T15:35:18.479Z,98653.50
2022-09-15T15:40:42.667Z,98651.38
2022-09-15T15:46:07.284Z,98646.91
2022-09-15T15:51:31.499Z,98616.97
2022-09-15T15:56:54.811Z,98655.19
2022-09-15T16:02:17.835Z,98627.41
2022-09-15T16:07:41.230Z,98674.13
2022-09-15T16:13:04.532Z,98672.56
2022-09-15T16:18:32.472Z,98645.88
2022-09-15T16:24:02.984Z,98664.00
2022-09-15T16:29:36.871Z,98629.81
2022-09-15T16:34:58.822Z,98641.50
2022-09-15T16:40:21.187Z,98660.19
2022-09-15T16:45:43.901Z,98672.63
2022-09-15T16:51:29.542Z,98691.19
2022-09-15T16:57:25.180Z,98687.28
2022-09-15T17:03:02.130Z,98638.03
2022-09-15T17:08:37.111Z,98635.69
2022-09-15T17:14:05.936Z,98637.69
2022-09-15T17:19:28.710Z,98653.69
2022-09-15T17:24:51.392Z,98651.44
2022-09-15T17:30:14.094Z,98665.41
2022-09-15T17:35:37.814Z,98660.78
2022-09-15T17:41:02.371Z,98698.31
2022-09-15T17:46:24.652Z,98710.47
2022-09-15T17:51:51.010Z,98681.84
2022-09-15T17:57:19.382Z,98644.41
2022-09-15T18:02:49.109Z,98632.44
2022-09-15T18:08:13.461Z,98672.81
2022-09-15T18:13:36.393Z,98643.25
2022-09-15T18:25:38.581Z,98659.84
2022-09-15T18:31:01.918Z,98645.53
2022-09-15T18:36:27.259Z,98639.84
2022-09-15T18:41:52.114Z,98683.13
2022-09-15T18:47:14.870Z,98664.41
2022-09-15T18:52:38.522Z,98704.31
2022-09-15T18:58:01.303Z,98705.47
2022-09-15T19:03:23.561Z,98691.25
2022-09-15T19:08:45.522Z,98698.03
2022-09-15T19:14:08.300Z,98696.44
2022-09-15T19:19:30.570Z,98647.63
2022-09-15T19:24:53.178Z,98661.06
2022-09-15T19:30:15.839Z,98677.28
2022-09-15T19:35:41.519Z,98662.75
2022-09-15T19:41:09.860Z,98681.56
2022-09-15T19:46:36.219Z,98657.88
2022-09-15T19:51:58.388Z,98619.84
2022-09-15T19:57:21.878Z,98642.50
2022-09-15T20:02:49.073Z,98643.13
2022-09-15T20:08:11.463Z,98625.59
2022-09-15T20:13:33.970Z,98685.94
2022-09-15T20:18:56.812Z,98696.31
2022-09-15T20:24:20.110Z,98682.69
2022-09-15T20:29:42.322Z,98695.84
2022-09-15T20:35:06.470Z,98688.19
2022-09-15T20:40:28.681Z,98677.28
2022-09-15T20:46:05.735Z,98696.16
2022-09-15T20:51:32.161Z,98673.56
2022-09-15T20:56:54.901Z,98690.38
2022-09-15T21:02:16.959Z,98675.06
2022-09-15T21:07:39.412Z,98685.09
2022-09-15T21:13:01.861Z,98679.41
2022-09-15T21:18:28.521Z,98710.56
2022-09-15T21:23:56.822Z,98712.78
2022-09-15T21:29:19.012Z,98705.03
2022-09-15T21:34:41.541Z,98695.53
2022-09-15T21:40:04.961Z,98698.06
2022-09-15T21:45:26.989Z,98658.34
2022-09-15T21:50:53.498Z,98698.41
2022-09-15T21:56:16.191Z,98643.66
2022-09-15T22:01:38.330Z,98704.56
2022-09-15T22:07:00.040Z,98703.47
2022-09-15T22:12:22.240Z,98680.97
2022-09-15T22:17:44.500Z,98671.81
2022-09-15T22:23:06.711Z,98688.59
2022-09-15T22:28:28.761Z,98690.00
2022-09-15T22:33:50.640Z,98687.94
2022-09-15T22:39:13.279Z,98696.34
2022-09-15T22:44:35.422Z,98702.03
2022-09-15T22:49:57.520Z,98709.94
2022-09-15T22:55:19.842Z,98706.31
2022-09-15T23:00:42.176Z,98713.09
2022-09-15T23:06:04.641Z,98709.13
2022-09-15T23:11:29.030Z,98699.63
2022-09-15T23:16:51.320Z,98715.31
2022-09-15T23:22:13.727Z,98692.69
2022-09-15T23:27:38.370Z,98648.81
2022-09-15T23:33:05.948Z,98666.69
2022-09-15T23:38:28.818Z,98735.22
2022-09-15T23:43:51.841Z,98720.19
2022-09-15T23:49:18.476Z,98718.63
2022-09-15T23:54:46.831Z,98679.97
